Time;durP1;ratioP1;P1;durP2;ratioP2;P2;SDS_P1;SDS_P2;PMS_P1;PMS_P2;Temp;Humidity;BMP_temperature;BMP_pressure;BME280_temperature;BME280_humidity;BME280_pressure;Samples;Min_cycle;Max_cycle;Signal;HPM_P1;HPM_P2
2021/11/26 00:02:21;;;;;;;21.35;16.33;;;;;;;4.48;75.39;99673.50;5040952;28;20472;-75
2021/11/26 00:04:48;;;;;;;19.98;15.27;;;;;;;4.52;75.37;99664.78;5021726;28;20045;-75
2021/11/26 00:07:14;;;;;;;21.90;16.48;;;;;;;4.46;76.00;99662.16;5020805;28;20045;-75
2021/11/26 00:09:40;;;;;;;22.27;17.15;;;;;;;4.44;76.01;99656.03;5025169;28;20034;-75
2021/11/26 00:12:05;;;;;;;19.67;14.88;;;;;;;4.48;75.68;99662.13;5022610;28;20052;-75
2021/11/26 00:14:32;;;;;;;21.02;15.15;;;;;;;4.43;76.44;99651.69;5024109;28;20041;-76
2021/11/26 00:16:59;;;;;;;23.65;15.20;;;;;;;4.44;76.37;99657.78;5038394;28;20419;-75
2021/11/26 00:19:26;;;;;;;20.30;14.48;;;;;;;4.45;76.16;99649.06;5024101;28;20033;-75
2021/11/26 00:21:52;;;;;;;20.55;16.30;;;;;;;4.48;76.10;99646.47;5021916;28;20120;-75
2021/11/26 00:24:18;;;;;;;20.80;15.05;;;;;;;4.58;76.00;99650.84;5023361;28;20069;-75
2021/11/26 00:26:45;;;;;;;22.25;15.98;;;;;;;4.56;75.33;99647.38;5023947;28;20087;-74
2021/11/26 00:29:12;;;;;;;20.35;15.52;;;;;;;4.55;75.79;99656.06;5018618;28;20061;-75
2021/11/26 00:31:38;;;;;;;21.48;16.05;;;;;;;4.48;76.06;99651.69;5022908;28;20049;-75
2021/11/26 00:34:05;;;;;;;21.13;16.38;;;;;;;4.51;75.76;99649.97;5023632;28;20526;-75
2021/11/26 00:36:30;;;;;;;23.27;16.90;;;;;;;4.50;75.90;99655.19;5022655;28;20337;-75
2021/11/26 00:38:56;;;;;;;21.80;16.73;;;;;;;4.44;76.11;99647.34;5023869;28;20041;-75
2021/11/26 00:41:21;;;;;;;21.08;15.80;;;;;;;4.47;76.12;99645.59;5021708;28;20041;-75
2021/11/26 00:43:47;;;;;;;21.38;15.93;;;;;;;4.43;75.78;99640.34;5027281;28;20025;-75
2021/11/26 00:46:12;;;;;;;20.83;15.27;;;;;;;4.43;75.88;99632.50;5024174;28;20526;-75
2021/11/26 00:48:38;;;;;;;20.35;15.32;;;;;;;4.35;76.04;99638.59;5024288;28;20037;-75
2021/11/26 00:51:03;;;;;;;20.77;15.15;;;;;;;4.33;76.22;99640.31;5020627;28;20033;-75
2021/11/26 00:53:28;;;;;;;23.92;17.08;;;;;;;4.32;76.91;99633.34;5043801;28;20022;-75
2021/11/26 00:55:54;;;;;;;20.92;15.82;;;;;;;4.34;76.71;99622.91;5022764;28;20037;-74
2021/11/26 00:58:19;;;;;;;22.63;15.32;;;;;;;4.27;76.99;99621.09;5022907;28;20128;-74
2021/11/26 01:00:45;;;;;;;21.90;16.60;;;;;;;4.32;76.46;99617.69;5023175;28;20049;-74
2021/11/26 01:03:10;;;;;;;22.17;17.05;;;;;;;4.34;76.47;99612.44;5021858;28;20040;-75
2021/11/26 01:05:35;;;;;;;21.27;15.57;;;;;;;4.36;76.49;99605.50;5023798;28;20064;-75
2021/11/26 01:08:01;;;;;;;25.23;17.48;;;;;;;4.37;76.41;99605.47;5021359;28;20092;-75
2021/11/26 01:10:27;;;;;;;24.08;16.20;;;;;;;4.31;76.25;99602.84;5024427;28;20069;-75
2021/11/26 01:12:53;;;;;;;20.08;15.55;;;;;;;4.37;76.83;99605.47;5020514;28;20054;-75
2021/11/26 01:15:28;;;;;;;25.77;17.15;;;;;;;4.34;76.33;99597.63;5020727;28;20040;-75
2021/11/26 01:17:54;;;;;;;22.92;17.92;;;;;;;4.36;76.67;99589.81;5021179;28;20073;-75
2021/11/26 01:20:23;;;;;;;23.67;17.63;;;;;;;4.35;76.62;99588.94;5024236;28;20100;-75
2021/11/26 01:22:49;;;;;;;23.30;16.00;;;;;;;4.47;75.94;99592.47;5020823;28;20489;-75
2021/11/26 01:25:16;;;;;;;22.77;16.63;;;;;;;4.45;76.21;99583.75;5024065;28;20028;-75
2021/11/26 01:27:41;;;;;;;22.48;16.00;;;;;;;4.39;76.35;99584.59;5035604;28;20069;-75
2021/11/26 01:30:20;;;;;;;23.63;16.85;;;;;;;4.38;76.54;99581.13;5020473;28;20076;-74
2021/11/26 01:32:45;;;;;;;21.27;16.60;;;;;;;4.33;76.46;99582.84;5020007;28;20065;-74
2021/11/26 01:35:11;;;;;;;24.33;16.17;;;;;;;4.34;76.12;99578.47;5023256;28;20116;-75
2021/11/26 01:37:36;;;;;;;23.55;17.27;;;;;;;4.32;76.86;99575.00;5020502;28;20026;-74
2021/11/26 01:40:03;;;;;;;21.95;16.15;;;;;;;4.39;76.08;99569.78;5023975;28;20431;-74
2021/11/26 01:42:29;;;;;;;24.08;16.77;;;;;;;4.39;76.45;99564.56;5020142;28;20128;-75
2021/11/26 01:44:54;;;;;;;24.52;18.13;;;;;;;4.36;76.10;99564.56;5023683;28;20787;-75
2021/11/26 01:47:20;;;;;;;24.60;16.58;;;;;;;4.39;76.20;99564.56;5020700;28;20034;-74
2021/11/26 01:49:45;;;;;;;25.10;17.75;;;;;;;4.37;76.02;99560.19;5022899;28;20068;-74
2021/11/26 01:52:10;;;;;;;22.42;16.35;;;;;;;4.41;76.27;99555.88;5020578;28;20055;-75
2021/11/26 01:54:36;;;;;;;22.10;16.42;;;;;;;4.42;76.19;99561.09;5021922;28;20044;-75
2021/11/26 01:57:01;;;;;;;24.10;16.73;;;;;;;4.45;76.00;99561.09;5021762;28;20071;-74
2021/11/26 01:59:26;;;;;;;23.60;16.85;;;;;;;4.41;76.00;99558.50;5021325;28;20038;-75
2021/11/26 02:01:52;;;;;;;22.48;16.55;;;;;;;4.39;75.97;99548.88;5022585;28;20026;-75
2021/11/26 02:04:17;;;;;;;23.45;17.50;;;;;;;4.38;76.06;99552.38;5032282;28;20059;-74
2021/11/26 02:06:42;;;;;;;23.50;16.38;;;;;;;4.40;76.29;99552.38;5018958;28;20562;-75
2021/11/26 02:09:08;;;;;;;20.48;15.70;;;;;;;4.45;76.09;99544.56;5038936;28;20411;-75
2021/11/26 02:11:33;;;;;;;24.45;17.98;;;;;;;4.40;76.03;99539.31;5019831;28;20489;-75
2021/11/26 02:13:58;;;;;;;20.23;15.25;;;;;;;4.46;76.13;99538.47;5026472;28;20060;-75
2021/11/26 02:16:24;;;;;;;23.55;16.13;;;;;;;4.44;76.22;99534.97;5027864;28;20104;-74
2021/11/26 02:18:50;;;;;;;21.73;16.05;;;;;;;4.43;75.72;99528.91;5020641;28;20092;-74
2021/11/26 02:21:20;;;;;;;21.48;16.10;;;;;;;4.38;76.24;99518.41;5029565;28;20037;-74
2021/11/26 02:23:47;;;;;;;24.90;17.08;;;;;;;4.33;76.22;99529.72;5033545;28;20029;-75
2021/11/26 02:26:12;;;;;;;23.10;16.52;;;;;;;4.42;75.73;99529.75;5020899;28;20096;-75
2021/11/26 02:28:40;;;;;;;21.38;15.70;;;;;;;4.37;76.37;99524.50;5021431;28;20507;-74
2021/11/26 02:31:05;;;;;;;20.83;15.88;;;;;;;4.48;76.07;99521.03;5021166;28;20048;-74
2021/11/26 02:33:31;;;;;;;22.80;17.13;;;;;;;4.43;76.19;99523.66;5021012;28;20034;-74
2021/11/26 02:35:56;;;;;;;22.88;15.85;;;;;;;4.45;76.13;99521.91;5021854;28;20040;-75
2021/11/26 02:38:25;;;;;;;21.63;15.90;;;;;;;4.46;76.01;99520.19;5020456;28;20049;-75
2021/11/26 02:40:51;;;;;;;21.95;15.70;;;;;;;4.51;75.91;99510.63;5020605;28;20029;-75
2021/11/26 02:43:17;;;;;;;21.25;15.63;;;;;;;4.57;75.74;99505.41;5020023;28;20042;-75
2021/11/26 02:45:44;;;;;;;23.60;16.60;;;;;;;4.60;75.26;99505.41;5022573;28;20038;-75
2021/11/26 02:48:11;;;;;;;22.00;15.77;;;;;;;4.68;75.44;99501.06;5019853;28;20148;-75
2021/11/26 02:50:36;;;;;;;22.38;16.00;;;;;;;4.66;75.36;99504.53;5022756;28;20029;-75
2021/11/26 02:53:04;;;;;;;22.23;15.82;;;;;;;4.65;75.36;99498.44;5030893;28;20500;-75
2021/11/26 02:55:31;;;;;;;22.98;15.07;;;;;;;4.68;75.33;99495.81;5019296;28;20412;-75
2021/11/26 02:57:58;;;;;;;23.95;16.80;;;;;;;4.59;75.43;99488.00;5034531;28;20037;-75
2021/11/26 03:00:26;;;;;;;22.45;16.27;;;;;;;4.63;75.74;99481.88;5019346;28;20042;-75
2021/11/26 03:02:52;;;;;;;21.42;15.45;;;;;;;4.64;75.44;99481.03;5024905;28;20041;-75
2021/11/26 03:05:18;;;;;;;23.02;16.58;;;;;;;4.61;75.47;99486.22;5023365;28;20038;-75
2021/11/26 03:07:44;;;;;;;20.73;15.57;;;;;;;4.60;75.70;99479.25;5026107;28;20035;-75
2021/11/26 03:10:16;;;;;;;24.80;17.08;;;;;;;4.61;75.72;99487.13;5022535;28;20037;-75
2021/11/26 03:12:42;;;;;;;21.55;16.77;;;;;;;4.52;75.77;99475.78;5026233;28;20033;-76
2021/11/26 03:15:08;;;;;;;22.75;15.63;;;;;;;4.57;75.56;99481.88;5038825;28;20088;-75
2021/11/26 03:17:33;;;;;;;22.15;16.48;;;;;;;4.54;75.96;99477.53;5025586;28;20087;-75
2021/11/26 03:19:58;;;;;;;22.52;14.98;;;;;;;4.60;75.68;99472.28;5024131;28;20561;-74
2021/11/26 03:22:24;;;;;;;18.55;13.98;;;;;;;4.58;75.41;99465.31;5028890;28;20470;-75
2021/11/26 03:24:49;;;;;;;24.45;17.33;;;;;;;4.53;75.83;99460.13;5027020;28;20025;-75
2021/11/26 03:27:15;;;;;;;24.35;16.20;;;;;;;4.60;75.76;99466.19;5026398;28;20044;-75
2021/11/26 03:29:40;;;;;;;22.95;16.65;;;;;;;4.63;75.54;99455.75;5030039;28;20080;-75
2021/11/26 03:32:06;;;;;;;21.38;16.60;;;;;;;4.68;75.48;99460.97;5026065;28;20471;-75
2021/11/26 03:34:31;;;;;;;21.67;15.65;;;;;;;4.74;75.36;99463.59;5027585;28;20029;-75
2021/11/26 03:36:57;;;;;;;22.65;16.10;;;;;;;4.73;75.08;99460.09;5031408;28;20551;-76
2021/11/26 03:39:22;;;;;;;23.45;16.40;;;;;;;4.79;75.35;99461.84;5022314;28;20122;-75
2021/11/26 03:41:47;;;;;;;23.58;16.80;;;;;;;4.73;75.35;99459.25;5027547;28;20025;-74
2021/11/26 03:44:13;;;;;;;21.88;16.15;;;;;;;4.73;75.37;99457.50;5028129;28;20073;-75
2021/11/26 03:46:38;;;;;;;20.88;15.70;;;;;;;4.72;75.05;99449.66;5032128;28;20060;-75
2021/11/26 03:49:04;;;;;;;20.70;16.08;;;;;;;4.74;75.14;99456.63;5025176;28;20040;-75
2021/11/26 03:51:29;;;;;;;21.73;15.77;;;;;;;4.76;74.94;99454.88;5026946;28;20533;-74
2021/11/26 03:53:54;;;;;;;21.30;15.35;;;;;;;4.81;74.68;99447.91;5022618;28;20052;-74
2021/11/26 03:56:20;;;;;;;20.40;15.52;;;;;;;4.82;75.13;99448.78;5024248;28;20029;-74
2021/11/26 03:58:46;;;;;;;22.02;15.65;;;;;;;4.80;74.37;99440.06;5028105;28;20044;-75
2021/11/26 04:01:11;;;;;;;21.13;15.25;;;;;;;4.75;74.80;99437.47;5022903;28;20038;-74
2021/11/26 04:03:36;;;;;;;21.88;15.25;;;;;;;4.72;75.23;99436.59;5024542;28;20033;-74
2021/11/26 04:06:02;;;;;;;21.23;15.88;;;;;;;4.71;74.97;99438.31;5032999;28;20044;-75
2021/11/26 04:08:27;;;;;;;22.65;16.55;;;;;;;4.68;75.24;99438.31;5024280;28;20060;-74
2021/11/26 04:10:53;;;;;;;18.48;14.73;;;;;;;4.71;75.17;99438.31;5029659;28;20041;-75
2021/11/26 04:13:18;;;;;;;22.27;14.98;;;;;;;4.69;75.08;99436.56;5023710;28;20029;-74
2021/11/26 04:15:45;;;;;;;19.52;15.55;;;;;;;4.69;75.40;99437.47;5037941;28;20438;-75
2021/11/26 04:18:11;;;;;;;23.98;17.38;;;;;;;4.72;74.93;99434.00;5023820;28;20057;-75
2021/11/26 04:20:37;;;;;;;21.75;16.08;;;;;;;4.69;74.97;99432.25;5023454;28;20523;-74
2021/11/26 04:23:04;;;;;;;26.80;17.80;;;;;;;4.72;75.10;99434.84;5023161;28;20042;-74
2021/11/26 04:25:30;;;;;;;22.45;15.40;;;;;;;4.76;75.03;99418.28;5023692;28;20124;-75
2021/11/26 04:27:56;;;;;;;21.83;15.82;;;;;;;4.77;74.97;99413.94;5034781;28;20045;-75
2021/11/26 04:30:24;;;;;;;23.15;16.63;;;;;;;4.83;74.97;99414.78;5022633;28;20484;-75
2021/11/26 04:32:50;;;;;;;22.58;16.95;;;;;;;4.89;74.69;99406.06;5022421;28;20474;-74
2021/11/26 04:35:16;;;;;;;19.70;14.63;;;;;;;4.84;74.76;99400.84;5022160;28;20038;-75
2021/11/26 04:37:41;;;;;;;22.73;16.10;;;;;;;4.86;74.59;99397.38;5025813;28;20403;-75
2021/11/26 04:40:09;;;;;;;21.60;15.88;;;;;;;4.91;74.82;99395.63;5024782;28;20041;-74
2021/11/26 04:42:43;;;;;;;23.10;15.60;;;;;;;4.97;74.45;99395.59;5021110;28;20033;-75
2021/11/26 04:45:10;;;;;;;22.58;15.73;;;;;;;4.97;74.19;99395.59;5029484;28;20065;-75
2021/11/26 04:47:37;;;;;;;21.73;14.57;;;;;;;5.01;74.54;99397.34;5024634;28;20510;-75
2021/11/26 04:50:04;;;;;;;29.58;20.58;;;;;;;5.05;74.37;99399.06;5024502;28;20033;-77
2021/11/26 04:52:30;;;;;;;24.15;16.88;;;;;;;5.09;74.38;99397.34;5021387;28;20040;-77
2021/11/26 04:54:55;;;;;;;24.60;15.98;;;;;;;5.04;74.62;99399.97;5024285;28;20045;-76
2021/11/26 04:57:20;;;;;;;22.25;15.25;;;;;;;5.05;74.64;99399.06;5020822;28;20041;-76
2021/11/26 04:59:46;;;;;;;23.95;16.45;;;;;;;5.08;74.52;99396.44;5029070;28;20064;-76
2021/11/26 05:02:11;;;;;;;20.83;15.07;;;;;;;5.06;74.68;99390.38;5022964;28;20038;-76
2021/11/26 05:04:37;;;;;;;24.15;14.73;;;;;;;5.05;74.28;99396.44;5023320;28;20444;-76
2021/11/26 05:07:02;;;;;;;22.02;14.80;;;;;;;5.01;74.01;99397.34;5020527;28;20033;-76
2021/11/26 05:09:28;;;;;;;22.13;16.25;;;;;;;4.98;74.99;99392.13;5025772;28;20034;-76
2021/11/26 05:11:55;;;;;;;21.70;15.70;;;;;;;4.95;74.68;99385.16;5023878;28;20061;-77
2021/11/26 05:14:22;;;;;;;22.15;15.20;;;;;;;4.97;74.67;99393.00;5033923;28;20038;-76
2021/11/26 05:16:47;;;;;;;20.00;14.63;;;;;;;4.98;74.12;99386.91;5024619;28;20494;-77
2021/11/26 05:19:13;;;;;;;21.90;15.90;;;;;;;4.98;74.31;99381.69;5027740;28;20038;-76
2021/11/26 05:21:38;;;;;;;21.20;15.20;;;;;;;4.92;73.79;99376.44;5028032;28;20034;-77
2021/11/26 05:24:04;;;;;;;22.35;14.65;;;;;;;4.83;74.82;99382.56;5023355;28;20037;-76
2021/11/26 05:26:29;;;;;;;19.88;15.10;;;;;;;4.79;74.88;99376.47;5020697;28;20044;-76
2021/11/26 05:28:55;;;;;;;21.45;14.65;;;;;;;4.74;74.75;99380.84;5030804;28;20033;-76
2021/11/26 05:31:21;;;;;;;20.52;14.40;;;;;;;4.68;75.02;99383.44;5028114;28;20049;-76
2021/11/26 05:33:47;;;;;;;20.55;14.05;;;;;;;4.70;75.02;99386.06;5023074;28;20033;-76
2021/11/26 05:36:12;;;;;;;19.35;14.38;;;;;;;4.67;74.85;99376.47;5020870;28;20069;-76
2021/11/26 05:38:38;;;;;;;30.17;16.52;;;;;;;4.68;74.79;99383.44;5027460;28;20072;-77
2021/11/26 05:41:03;;;;;;;19.13;13.98;;;;;;;4.71;74.83;99379.94;5027046;28;20044;-77
2021/11/26 05:43:28;;;;;;;20.98;14.50;;;;;;;4.68;75.10;99367.75;5028464;28;20033;-76
2021/11/26 05:45:54;;;;;;;20.67;14.80;;;;;;;4.69;74.86;99369.50;5024385;28;20061;-77
2021/11/26 05:48:19;;;;;;;20.05;14.60;;;;;;;4.70;74.74;99375.59;5025495;28;20048;-76
2021/11/26 05:50:45;;;;;;;21.02;15.52;;;;;;;4.68;74.46;99367.75;5025078;28;20060;-77
2021/11/26 05:53:10;;;;;;;23.25;16.13;;;;;;;4.60;74.86;99361.66;5020556;28;20044;-77
2021/11/26 05:55:35;;;;;;;22.02;15.05;;;;;;;4.63;74.80;99368.63;5027497;28;20407;-76
2021/11/26 05:58:01;;;;;;;24.88;15.85;;;;;;;4.65;75.49;99361.66;5025663;28;20033;-77
2021/11/26 06:00:28;;;;;;;21.60;14.90;;;;;;;4.65;75.85;99359.94;5042286;28;20506;-77
2021/11/26 06:02:54;;;;;;;22.63;14.52;;;;;;;4.60;75.79;99351.22;5027260;28;20631;-76
2021/11/26 06:05:20;;;;;;;23.40;16.00;;;;;;;4.59;76.28;99344.25;5024119;28;20165;-76
2021/11/26 06:07:46;;;;;;;23.70;14.63;;;;;;;4.54;76.23;99349.47;5026920;28;20112;-77
2021/11/26 06:10:14;;;;;;;22.02;16.45;;;;;;;4.53;76.32;99339.00;5035926;28;20037;-77
2021/11/26 06:12:41;;;;;;;26.17;16.27;;;;;;;4.51;76.42;99341.66;5021846;28;20040;-77
2021/11/26 06:15:08;;;;;;;20.70;14.95;;;;;;;4.48;76.51;99333.81;5020648;28;20057;-77
2021/11/26 06:17:34;;;;;;;20.00;14.65;;;;;;;4.44;76.71;99332.06;5021823;28;20122;-77
2021/11/26 06:19:59;;;;;;;20.25;14.73;;;;;;;4.45;76.59;99328.56;5020778;28;20470;-77
2021/11/26 06:22:25;;;;;;;22.02;14.95;;;;;;;4.47;76.64;99320.75;5028337;28;20037;-76
2021/11/26 06:24:50;;;;;;;24.35;15.30;;;;;;;4.39;76.72;99324.22;5023197;28;20048;-77
2021/11/26 06:27:16;;;;;;;23.65;15.52;;;;;;;4.35;76.56;99324.25;5024632;28;20530;-77
2021/11/26 06:29:41;;;;;;;26.88;14.88;;;;;;;4.31;76.85;99319.88;5026447;28;20042;-76
2021/11/26 06:32:06;;;;;;;27.60;16.90;;;;;;;4.27;76.95;99311.19;5022906;28;20408;-76
2021/11/26 06:34:32;;;;;;;26.25;17.55;;;;;;;4.21;76.78;99319.00;5030984;28;20144;-77
2021/11/26 06:36:57;;;;;;;24.60;15.73;;;;;;;4.08;77.23;99319.88;5025193;28;20417;-76
2021/11/26 06:39:23;;;;;;;23.88;15.48;;;;;;;4.00;76.91;99313.78;5023128;28;20044;-77
2021/11/26 06:41:49;;;;;;;24.83;16.75;;;;;;;3.93;77.29;99312.91;5022112;28;20041;-76
2021/11/26 06:44:15;;;;;;;25.90;15.70;;;;;;;3.82;77.67;99305.03;5020069;28;20040;-76
2021/11/26 06:46:40;;;;;;;24.13;16.67;;;;;;;3.78;78.09;99303.31;5023649;28;20040;-76
2021/11/26 06:49:06;;;;;;;27.73;16.20;;;;;;;3.74;78.12;99307.66;5040987;28;20033;-76
2021/11/26 06:51:31;;;;;;;22.95;15.52;;;;;;;3.74;78.09;99301.56;5020887;28;20033;-76
2021/11/26 06:53:57;;;;;;;23.50;15.48;;;;;;;3.74;78.27;99306.78;5021234;28;20523;-76
2021/11/26 06:56:23;;;;;;;21.88;15.75;;;;;;;3.73;78.12;99292.88;5020180;28;20694;-76
2021/11/26 06:58:48;;;;;;;23.25;15.02;;;;;;;3.70;78.26;99294.63;5022257;28;20037;-76
2021/11/26 07:01:14;;;;;;;24.65;15.25;;;;;;;3.67;78.89;99292.88;5019032;28;20484;-76
2021/11/26 07:03:39;;;;;;;22.98;15.07;;;;;;;3.71;78.88;99291.97;5019997;28;20488;-76
2021/11/26 07:06:05;;;;;;;24.23;16.45;;;;;;;3.74;78.37;99291.13;5022543;28;20579;-76
2021/11/26 07:08:31;;;;;;;25.13;15.93;;;;;;;3.73;78.79;99294.63;5022551;28;20041;-76
2021/11/26 07:10:56;;;;;;;23.20;15.52;;;;;;;3.71;79.41;99294.59;5019528;28;20037;-77
2021/11/26 07:13:22;;;;;;;20.65;14.07;;;;;;;3.77;79.20;99292.88;5021437;28;20195;-77
2021/11/26 07:15:48;;;;;;;23.35;14.85;;;;;;;3.82;78.63;99289.38;5024918;28;20138;-76
2021/11/26 07:18:13;;;;;;;25.17;15.65;;;;;;;3.85;78.71;99286.81;5026798;28;20116;-76
2021/11/26 07:20:40;;;;;;;19.98;14.10;;;;;;;3.88;78.82;99286.81;5023973;28;20032;-76
2021/11/26 07:23:05;;;;;;;21.17;15.02;;;;;;;3.89;78.30;99287.66;5025085;28;20045;-76
2021/11/26 07:25:31;;;;;;;21.98;14.48;;;;;;;3.92;78.47;99287.66;5022631;28;20029;-77
2021/11/26 07:27:56;;;;;;;22.80;14.98;;;;;;;3.98;77.79;99279.81;5025341;28;20517;-76
2021/11/26 07:30:22;;;;;;;20.35;13.65;;;;;;;4.05;78.21;99275.50;5019376;28;20149;-76
2021/11/26 07:32:47;;;;;;;19.70;14.32;;;;;;;4.11;77.92;99270.25;5022061;28;20073;-76
2021/11/26 07:35:13;;;;;;;19.17;13.25;;;;;;;4.16;78.45;99278.97;5018789;28;20041;-76
2021/11/26 07:37:39;;;;;;;26.70;16.58;;;;;;;4.17;78.01;99272.88;5022371;28;20033;-76
2021/11/26 07:40:07;;;;;;;26.55;16.33;;;;;;;4.26;78.21;99272.00;5019092;28;20030;-76
2021/11/26 07:42:34;;;;;;;24.15;14.60;;;;;;;4.32;78.18;99262.44;5021952;28;20033;-77
2021/11/26 07:45:00;;;;;;;22.63;14.30;;;;;;;4.43;77.56;99251.06;5019428;28;20127;-77
2021/11/26 07:47:25;;;;;;;22.20;14.90;;;;;;;4.50;77.57;99243.22;5020815;28;20037;-77
2021/11/26 07:49:52;;;;;;;23.02;15.02;;;;;;;4.58;77.38;99243.19;5021822;28;20116;-76
2021/11/26 07:52:18;;;;;;;21.35;15.10;;;;;;;4.65;77.11;99247.53;5031036;28;20088;-76
2021/11/26 07:54:44;;;;;;;23.73;15.40;;;;;;;4.74;76.78;99244.91;5030080;28;20052;-77
2021/11/26 07:57:10;;;;;;;21.33;13.98;;;;;;;4.78;76.80;99244.00;5029314;28;20029;-76
2021/11/26 07:59:36;;;;;;;28.63;16.52;;;;;;;4.89;76.70;99243.13;5027914;28;20065;-77
2021/11/26 08:02:01;;;;;;;19.38;13.98;;;;;;;4.91;76.58;99241.38;5030500;28;20025;-76
2021/11/26 08:04:26;;;;;;;21.52;13.80;;;;;;;4.95;76.38;99243.06;5029481;28;20075;-76
2021/11/26 08:06:52;;;;;;;18.58;12.13;;;;;;;5.02;75.74;99245.66;5030568;28;20045;-77
2021/11/26 08:09:18;;;;;;;23.95;16.98;;;;;;;5.10;75.69;99245.63;5025120;28;20061;-76
2021/11/26 08:11:44;;;;;;;21.52;14.82;;;;;;;5.15;75.20;99238.63;5025541;28;20381;-76
2021/11/26 08:14:10;;;;;;;25.13;15.70;;;;;;;5.21;75.35;99233.41;5021567;28;20092;-76
2021/11/26 08:16:37;;;;;;;21.08;13.88;;;;;;;5.27;75.75;99235.09;5025072;28;20049;-76
2021/11/26 08:19:04;;;;;;;24.42;14.52;;;;;;;5.35;75.03;99235.06;5021993;28;20485;-76
2021/11/26 08:21:31;;;;;;;21.15;15.52;;;;;;;5.33;75.11;99227.22;5024760;28;20120;-77
2021/11/26 08:23:56;;;;;;;20.90;13.95;;;;;;;5.37;74.10;99222.81;5021904;28;20046;-77
2021/11/26 08:26:22;;;;;;;23.85;14.57;;;;;;;5.34;74.27;99220.22;5024145;28;20037;-77
2021/11/26 08:28:47;;;;;;;23.40;15.40;;;;;;;5.28;74.52;99216.75;5038125;28;20035;-77
2021/11/26 08:31:13;;;;;;;22.17;14.95;;;;;;;5.34;74.72;99215.84;5038698;28;20550;-76
2021/11/26 08:33:38;;;;;;;23.30;14.73;;;;;;;5.41;74.75;99217.56;5021806;28;20514;-77
2021/11/26 08:36:04;;;;;;;25.13;17.33;;;;;;;5.45;73.81;99213.19;5022794;28;20038;-76
2021/11/26 08:38:29;;;;;;;24.55;16.58;;;;;;;5.53;74.05;99210.50;5023859;28;20037;-77
2021/11/26 08:40:54;;;;;;;26.55;15.18;;;;;;;5.52;74.13;99204.41;5033726;28;20045;-77
2021/11/26 08:43:20;;;;;;;21.88;15.02;;;;;;;5.61;73.43;99200.88;5021640;28;20046;-76
2021/11/26 08:45:46;;;;;;;20.48;13.77;;;;;;;5.65;73.81;99198.19;5028323;28;20052;-77
2021/11/26 08:48:12;;;;;;;21.50;15.07;;;;;;;5.68;73.31;99200.78;5025371;28;20034;-77
2021/11/26 08:50:38;;;;;;;23.38;15.38;;;;;;;5.64;73.03;99191.22;5019143;28;20070;-77
2021/11/26 08:53:05;;;;;;;20.92;14.02;;;;;;;5.65;73.42;99190.34;5023213;28;20073;-77
2021/11/26 08:55:32;;;;;;;19.13;14.05;;;;;;;5.67;72.82;99190.34;5021670;28;20042;-77
2021/11/26 08:57:58;;;;;;;19.58;14.07;;;;;;;5.70;72.89;99185.94;5023727;28;20064;-77
2021/11/26 09:00:35;;;;;;;22.42;14.10;;;;;;;5.64;71.91;99183.38;5023918;28;20615;-76
2021/11/26 09:03:02;;;;;;;16.52;12.15;;;;;;;5.69;72.99;99184.22;5036215;28;20029;-77
2021/11/26 09:05:28;;;;;;;23.33;13.95;;;;;;;5.64;72.87;99182.53;5026401;28;20026;-77
2021/11/26 09:08:00;;;;;;;28.05;14.32;;;;;;;5.78;72.62;99185.88;5031036;28;20087;-76
2021/11/26 09:10:26;;;;;;;19.23;12.88;;;;;;;5.81;72.34;99182.38;5039247;28;20100;-77
2021/11/26 09:12:51;;;;;;;20.95;13.98;;;;;;;5.87;71.92;99177.09;5035835;28;20038;-77
2021/11/26 09:15:16;;;;;;;20.30;12.68;;;;;;;5.96;71.70;99170.94;5022490;28;20045;-77
2021/11/26 09:17:42;;;;;;;40.00;25.00;;;;;;;5.97;71.44;99170.91;5025822;28;20029;-77
2021/11/26 09:20:08;;;;;;;23.33;15.57;;;;;;;5.98;70.86;99172.66;5025303;28;20045;-77
2021/11/26 09:22:34;;;;;;;17.80;12.98;;;;;;;6.07;71.39;99169.94;5041209;28;20037;-77
2021/11/26 09:24:59;;;;;;;26.48;15.15;;;;;;;6.05;71.07;99171.72;5022162;28;20047;-77
2021/11/26 09:27:25;;;;;;;22.20;14.68;;;;;;;6.02;70.70;99160.41;5023275;28;20036;-77
2021/11/26 09:29:50;;;;;;;23.17;13.60;;;;;;;6.06;70.57;99162.13;5031366;28;20030;-77
2021/11/26 09:32:16;;;;;;;21.08;12.77;;;;;;;6.17;70.71;99159.38;5033275;28;20037;-77
2021/11/26 09:34:41;;;;;;;22.50;13.25;;;;;;;6.14;69.82;99153.28;5023814;28;20529;-77
2021/11/26 09:37:07;;;;;;;20.08;12.45;;;;;;;6.16;69.79;99148.03;5023647;28;20033;-77
2021/11/26 09:39:33;;;;;;;18.70;11.52;;;;;;;6.05;69.95;99149.88;5030762;28;20056;-77
2021/11/26 09:41:58;;;;;;;17.65;12.48;;;;;;;6.00;70.04;99139.47;5023058;28;20500;-77
2021/11/26 09:44:24;;;;;;;19.02;11.77;;;;;;;6.06;69.35;99139.41;5028811;28;20038;-77
2021/11/26 09:46:56;;;;;;;19.98;12.05;;;;;;;6.10;68.75;99127.13;5026505;28;20037;-77
2021/11/26 09:49:22;;;;;;;19.80;12.07;;;;;;;6.10;68.46;99128.03;5025000;28;20098;-77
2021/11/26 09:51:48;;;;;;;18.73;11.80;;;;;;;6.08;68.97;99114.06;5028296;28;20116;-77
2021/11/26 09:54:14;;;;;;;22.90;12.27;;;;;;;6.10;69.09;99120.16;5023723;28;20030;-76
2021/11/26 09:56:40;;;;;;;18.33;11.82;;;;;;;6.14;68.66;99108.75;5024988;28;20411;-77
2021/11/26 09:59:05;;;;;;;22.27;12.52;;;;;;;6.22;69.27;99113.03;5021172;28;20539;-76
2021/11/26 10:01:30;;;;;;;19.80;12.32;;;;;;;6.09;68.25;99105.31;5021958;28;20038;-76
2021/11/26 10:03:56;;;;;;;17.98;12.75;;;;;;;6.06;68.78;99110.59;5021499;28;20029;-77
2021/11/26 10:06:29;;;;;;;19.60;11.32;;;;;;;5.98;68.71;99116.81;5036506;28;20121;-77
2021/11/26 10:09:06;;;;;;;16.75;11.02;;;;;;;6.03;68.10;99104.53;5021197;28;20126;-77
2021/11/26 10:11:37;;;;;;;22.15;12.45;;;;;;;6.05;67.98;99097.50;5022574;28;20033;-77
2021/11/26 10:14:18;;;;;;;16.67;10.75;;;;;;;6.05;67.81;99098.38;5042485;28;20411;-77
2021/11/26 10:16:49;;;;;;;17.20;11.13;;;;;;;6.18;67.38;99098.22;5024874;28;20103;-77
2021/11/26 10:19:16;;;;;;;15.60;10.25;;;;;;;6.25;67.06;99087.66;5035006;28;20124;-77
2021/11/26 10:21:43;;;;;;;20.52;12.15;;;;;;;6.24;67.64;99082.47;5029820;28;20033;-77
2021/11/26 10:24:14;;;;;;;19.40;11.68;;;;;;;6.21;67.40;99077.22;5026477;28;20069;-77
2021/11/26 10:26:39;;;;;;;16.98;11.25;;;;;;;6.22;68.32;99079.00;5028430;28;20090;-77
2021/11/26 10:29:05;;;;;;;17.33;11.70;;;;;;;6.37;67.77;99076.19;5036988;28;20116;-77
2021/11/26 10:31:35;;;;;;;17.83;11.93;;;;;;;6.55;67.71;99070.72;5020817;28;20033;-77
2021/11/26 10:34:04;;;;;;;19.13;11.85;;;;;;;6.63;67.54;99065.38;5021576;28;20037;-77
2021/11/26 10:36:42;;;;;;;17.27;11.10;;;;;;;6.79;66.28;99060.78;5026823;28;20034;-77
2021/11/26 10:39:17;;;;;;;12.98;9.68;;;;;;;6.65;65.74;99042.59;5022697;28;20121;-77
2021/11/26 10:41:49;;;;;;;15.82;10.23;;;;;;;6.65;65.40;99039.97;5023315;28;20033;-77
2021/11/26 10:44:16;;;;;;;15.30;9.60;;;;;;;6.43;65.12;99036.78;5021308;28;20503;-77
2021/11/26 10:46:47;;;;;;;14.75;10.10;;;;;;;6.35;66.02;99028.16;5021153;28;20096;-77
2021/11/26 10:49:41;;;;;;;17.02;9.50;;;;;;;6.49;66.24;99026.22;5020108;28;20052;-77
2021/11/26 10:57:43;;;;;;;16.17;9.77;;;;;;;6.70;65.59;99017.19;5024174;28;20037;-77
2021/11/26 11:00:18;;;;;;;14.57;9.40;;;;;;;6.76;65.13;99016.25;5033772;28;20595;-77
2021/11/26 11:02:48;;;;;;;14.00;9.15;;;;;;;6.66;64.89;99007.66;5027318;28;20059;-76
2021/11/26 11:05:29;;;;;;;13.07;8.00;;;;;;;6.80;64.42;98999.56;5031336;28;20025;-76
2021/11/26 11:07:54;;;;;;;13.65;8.75;;;;;;;6.84;64.96;98996.03;5020944;28;20034;-77
2021/11/26 11:10:42;;;;;;;16.05;9.20;;;;;;;6.83;63.61;98999.50;5027548;28;20487;-77
2021/11/26 11:13:12;;;;;;;13.55;9.85;;;;;;;6.90;63.91;99001.16;5036514;28;20042;-77
2021/11/26 11:15:38;;;;;;;13.57;8.52;;;;;;;6.84;64.13;98989.88;5036858;28;20575;-77
2021/11/26 11:18:05;;;;;;;14.60;9.02;;;;;;;6.87;64.65;98982.84;5019960;28;20116;-76
2021/11/26 11:20:31;;;;;;;11.95;7.65;;;;;;;6.75;63.16;98981.28;5038224;28;20453;-76
2021/11/26 11:22:57;;;;;;;12.20;8.15;;;;;;;6.82;63.99;98979.44;5020608;28;20116;-77
2021/11/26 11:25:27;;;;;;;15.35;9.35;;;;;;;6.73;63.06;98969.06;5026651;28;20686;-76
2021/11/26 11:28:04;;;;;;;13.23;8.30;;;;;;;6.63;63.06;98962.25;5005950;28;20091;-76
2021/11/26 11:30:29;;;;;;;13.18;8.13;;;;;;;6.73;63.17;98958.59;5032350;28;20036;-76